createdAt,value
2024-03-06T00:01:43.777Z,100787.40
2024-03-06T00:04:11.697Z,100785.09
2024-03-06T00:06:39.446Z,100790.70
2024-03-06T00:09:09.303Z,100788.96
2024-03-06T00:11:37.214Z,100789.05
2024-03-06T00:14:08.713Z,100790.75
2024-03-06T00:16:36.549Z,100790.92
2024-03-06T00:19:04.563Z,100793.94
2024-03-06T00:21:32.704Z,100792.38
2024-03-06T00:24:00.716Z,100793.61
2024-03-06T00:26:28.506Z,100794.69
2024-03-06T00:28:58.769Z,100798.98
2024-03-06T00:31:26.714Z,100799.11
2024-03-06T00:33:54.641Z,100800.08
2024-03-06T00:36:23.903Z,100799.59
2024-03-06T00:38:51.834Z,100797.30
2024-03-06T00:41:20.640Z,100799.70
2024-03-06T00:43:48.740Z,100802.24
2024-03-06T00:46:16.623Z,100802.34
2024-03-06T00:48:44.437Z,100804.52
2024-03-06T00:51:12.180Z,100801.27
2024-03-06T00:53:40.034Z,100803.75
2024-03-06T00:56:08.517Z,100807.45
2024-03-06T00:58:36.598Z,100809.69
2024-03-06T01:01:05.596Z,100812.88
2024-03-06T01:03:33.827Z,100814.18
2024-03-06T01:06:01.885Z,100811.15
2024-03-06T01:08:29.916Z,100814.86
2024-03-06T01:10:57.765Z,100810.94
2024-03-06T01:13:26.943Z,100814.63
2024-03-06T01:15:55.501Z,100814.81
2024-03-06T01:18:23.403Z,100821.15
2024-03-06T01:20:51.411Z,100827.33
2024-03-06T01:23:19.446Z,100827.77
2024-03-06T01:25:47.380Z,100825.30
2024-03-06T01:28:15.450Z,100827.06
2024-03-06T01:30:43.289Z,100826.60
2024-03-06T01:33:11.201Z,100829.31
2024-03-06T01:35:40.345Z,100829.66
2024-03-06T01:38:11.728Z,100829.92
2024-03-06T01:40:45.823Z,100830.40
2024-03-06T01:43:24.055Z,100835.81
2024-03-06T01:45:54.202Z,100840.26
2024-03-06T01:48:32.575Z,100837.23
2024-03-06T01:51:01.405Z,100837.63
2024-03-06T01:53:31.663Z,100837.18
2024-03-06T01:56:00.004Z,100836.47
2024-03-06T01:58:32.143Z,100836.91
2024-03-06T02:01:00.245Z,100840.48
2024-03-06T02:03:28.239Z,100838.70
2024-03-06T02:05:56.513Z,100842.02
2024-03-06T02:08:24.489Z,100836.73
2024-03-06T02:10:52.462Z,100837.78
2024-03-06T02:13:20.566Z,100834.50
2024-03-06T02:15:49.277Z,100833.59
2024-03-06T02:18:17.131Z,100835.30
2024-03-06T02:20:47.058Z,100834.30
2024-03-06T02:23:15.986Z,100828.98
2024-03-06T02:25:43.943Z,100828.80
2024-03-06T02:28:11.762Z,100827.77
2024-03-06T02:30:39.549Z,100829.81
2024-03-06T02:33:10.746Z,100828.68
2024-03-06T02:35:41.208Z,100833.64
2024-03-06T02:38:09.109Z,100836.08
2024-03-06T02:40:37.073Z,100839.80
2024-03-06T02:43:08.663Z,100840.15
2024-03-06T02:45:36.439Z,100841.63
2024-03-06T02:48:04.684Z,100839.73
2024-03-06T02:50:32.521Z,100842.08
2024-03-06T02:53:00.345Z,100844.52
2024-03-06T02:55:28.225Z,100843.86
2024-03-06T02:57:56.054Z,100847.33
2024-03-06T03:00:23.931Z,100851.27
2024-03-06T03:02:51.697Z,100850.33
2024-03-06T03:05:19.532Z,100851.04
2024-03-06T03:07:47.579Z,100855.38
2024-03-06T03:10:15.655Z,100853.55
2024-03-06T03:12:45.936Z,100853.89
2024-03-06T03:15:13.878Z,100860.66
2024-03-06T03:17:42.674Z,100862.14
2024-03-06T03:20:11.843Z,100865.44
2024-03-06T03:22:41.304Z,100863.75
2024-03-06T03:25:13.303Z,100869.39
2024-03-06T03:27:41.724Z,100872.03
2024-03-06T03:30:10.695Z,100871.95
2024-03-06T03:32:39.078Z,100875.31
2024-03-06T03:35:07.890Z,100877.42
2024-03-06T03:37:35.759Z,100879.70
2024-03-06T03:40:04.360Z,100878.39
2024-03-06T03:42:32.476Z,100885.09
2024-03-06T03:45:00.336Z,100891.95
2024-03-06T03:47:29.236Z,100889.09
2024-03-06T03:50:03.621Z,100893.39
2024-03-06T03:52:43.589Z,100895.59
2024-03-06T03:55:12.453Z,100896.31
2024-03-06T03:57:40.725Z,100898.85
2024-03-06T04:00:12.652Z,100897.39
2024-03-06T04:02:40.779Z,100896.41
2024-03-06T04:05:08.966Z,100899.36
2024-03-06T04:07:37.758Z,100897.78
2024-03-06T04:10:06.088Z,100894.96
2024-03-06T04:12:33.839Z,100899.80
2024-03-06T04:15:02.004Z,100897.94
2024-03-06T04:17:29.913Z,100899.61
2024-03-06T04:19:57.822Z,100901.91
2024-03-06T04:22:25.756Z,100903.58
2024-03-06T04:24:53.504Z,100906.36
2024-03-06T04:27:21.426Z,100909.48
2024-03-06T04:29:49.381Z,100912.21
2024-03-06T04:32:17.166Z,100913.63
2024-03-06T04:34:45.136Z,100917.73
2024-03-06T04:37:13.215Z,100918.91
2024-03-06T04:39:42.300Z,100924.98
2024-03-06T04:42:10.632Z,100925.69
2024-03-06T04:44:38.536Z,100925.71
2024-03-06T04:47:06.363Z,100923.64
2024-03-06T04:49:38.144Z,100928.44
2024-03-06T04:52:06.107Z,100932.64
2024-03-06T04:54:34.481Z,100934.36
2024-03-06T04:57:02.348Z,100931.56
2024-03-06T04:59:32.566Z,100935.31
2024-03-06T05:02:00.445Z,100940.73
2024-03-06T05:59:48.088Z,100978.96
2024-03-06T06:02:17.655Z,100982.10
2024-03-06T06:04:51.991Z,100984.08
2024-03-06T06:07:28.408Z,100983.64
2024-03-06T06:09:56.259Z,100981.58
2024-03-06T06:12:24.067Z,100983.60
2024-03-06T06:14:52.033Z,100985.71
2024-03-06T06:17:20.687Z,100990.71
2024-03-06T06:19:49.183Z,100988.42
2024-03-06T06:22:17.020Z,100990.67
2024-03-06T06:24:47.921Z,100992.42
2024-03-06T06:27:16.087Z,100992.30
2024-03-06T06:29:43.954Z,100996.04
2024-03-06T06:32:11.900Z,100996.65
2024-03-06T06:34:39.784Z,100995.95
2024-03-06T06:37:07.789Z,101007.59
2024-03-06T06:39:35.716Z,101004.55
2024-03-06T06:42:04.444Z,101008.56
2024-03-06T06:44:32.625Z,101010.25
2024-03-06T06:47:00.877Z,101009.17
2024-03-06T06:49:28.789Z,101011.86
2024-03-06T06:51:57.024Z,101012.11
2024-03-06T06:54:24.864Z,101016.27
2024-03-06T06:56:52.757Z,101019.38
2024-03-06T06:59:23.307Z,101018.80
2024-03-06T07:01:51.739Z,101024.56
2024-03-06T07:04:21.568Z,101024.50
2024-03-06T07:06:49.497Z,101019.65
2024-03-06T07:09:18.396Z,101023.96
2024-03-06T07:11:46.323Z,101027.85
2024-03-06T07:14:14.710Z,101026.19
2024-03-06T07:16:46.689Z,101030.73
2024-03-06T07:19:14.635Z,101036.45
2024-03-06T07:21:42.600Z,101036.48
2024-03-06T07:24:10.505Z,101038.23
2024-03-06T07:26:38.962Z,101036.31
2024-03-06T07:29:14.157Z,101031.27
2024-03-06T07:31:42.838Z,101035.34
2024-03-06T07:34:11.000Z,101038.20
2024-03-06T07:36:38.964Z,101039.81
2024-03-06T07:39:07.086Z,101039.90
2024-03-06T07:41:38.219Z,101039.77
2024-03-06T07:44:06.351Z,101046.21
2024-03-06T07:46:34.211Z,101046.67
2024-03-06T07:49:04.241Z,101046.09
2024-03-06T07:51:33.055Z,101048.63
2024-03-06T07:54:00.443Z,101048.73
2024-03-06T07:56:28.200Z,101045.23
2024-03-06T07:58:55.928Z,101046.46
2024-03-06T08:01:24.444Z,101047.68
2024-03-06T08:03:51.432Z,101048.51
2024-03-06T08:06:19.728Z,101049.56
2024-03-06T08:08:46.784Z,101046.70
2024-03-06T08:11:14.916Z,101049.73
2024-03-06T08:13:42.521Z,101057.48
2024-03-06T08:16:09.507Z,101058.16
2024-03-06T08:18:38.002Z,101057.94
2024-03-06T08:21:07.309Z,101056.94
2024-03-06T08:23:34.663Z,101054.58
2024-03-06T08:26:02.069Z,101056.75
2024-03-06T08:28:29.171Z,101058.17
2024-03-06T08:30:56.144Z,101055.86
2024-03-06T08:33:24.413Z,101053.88
2024-03-06T08:35:52.000Z,101054.47
2024-03-06T08:38:19.188Z,101054.91
2024-03-06T08:40:49.964Z,101053.50
2024-03-06T08:43:17.308Z,101056.43
2024-03-06T08:45:44.413Z,101058.52
2024-03-06T08:48:12.896Z,101053.36
2024-03-06T08:50:40.937Z,101052.98
2024-03-06T08:53:08.454Z,101055.21
2024-03-06T08:55:35.317Z,101054.64
2024-03-06T08:58:03.060Z,101055.25
2024-03-06T09:00:30.203Z,101054.22
2024-03-06T09:02:57.379Z,101055.58
2024-03-06T09:05:24.504Z,101054.02
2024-03-06T09:07:51.622Z,101059.59
2024-03-06T09:10:20.446Z,101062.85
2024-03-06T09:15:16.194Z,101066.70
2024-03-06T09:17:43.897Z,101066.83
2024-03-06T09:20:12.646Z,101065.02
2024-03-06T09:22:41.314Z,101058.80
2024-03-06T09:25:09.268Z,101064.66
2024-03-06T09:27:37.194Z,101059.45
2024-03-06T09:30:04.763Z,101061.55
2024-03-06T09:32:32.542Z,101062.05
2024-03-06T09:35:00.661Z,101062.18
2024-03-06T09:37:29.270Z,101066.39
2024-03-06T09:39:58.104Z,101066.47
2024-03-06T09:42:25.664Z,101059.49
2024-03-06T09:44:53.020Z,101053.74
2024-03-06T09:47:28.270Z,101053.64
2024-03-06T09:49:55.748Z,101055.95
2024-03-06T09:52:26.465Z,101059.67
2024-03-06T09:54:56.121Z,101060.27
2024-03-06T09:57:23.119Z,101059.55
2024-03-06T09:59:50.152Z,101059.30
2024-03-06T10:02:35.450Z,101056.27
2024-03-06T10:05:02.645Z,101055.75
2024-03-06T10:07:29.735Z,101053.32
2024-03-06T10:09:58.271Z,101059.45
2024-03-06T10:12:25.697Z,101058.56
2024-03-06T10:14:53.633Z,101059.50
2024-03-06T10:17:24.608Z,101058.04
2024-03-06T10:19:53.135Z,101058.88
2024-03-06T10:22:27.164Z,101059.88
2024-03-06T10:24:58.249Z,101064.11
2024-03-06T10:27:25.298Z,101062.12
2024-03-06T10:30:06.663Z,101062.20
2024-03-06T10:32:34.333Z,101064.91
2024-03-06T10:35:01.652Z,101065.70
2024-03-06T10:37:30.464Z,101068.25
2024-03-06T10:40:00.149Z,101067.33
2024-03-06T10:42:30.083Z,101075.23
2024-03-06T10:44:57.679Z,101069.45
2024-03-06T10:47:27.044Z,101076.25
2024-03-06T10:49:55.067Z,101073.80
2024-03-06T10:52:22.941Z,101074.81
2024-03-06T10:54:50.161Z,101076.84
2024-03-06T10:57:17.877Z,101078.64
2024-03-06T10:59:45.088Z,101082.00
2024-03-06T11:02:14.323Z,101081.53
2024-03-06T11:04:41.873Z,101088.95
2024-03-06T11:07:12.634Z,101090.23
2024-03-06T11:09:41.635Z,101090.90
2024-03-06T11:12:08.946Z,101092.78
2024-03-06T11:14:40.891Z,101088.73
2024-03-06T11:17:10.993Z,101087.00
2024-03-06T11:20:07.669Z,101091.52
2024-03-06T11:23:03.714Z,101089.63
2024-03-06T11:25:53.202Z,101092.18
2024-03-06T11:28:21.454Z,101091.45
2024-03-06T11:30:48.761Z,101089.02
2024-03-06T11:33:19.928Z,101090.66
2024-03-06T11:36:18.984Z,101092.94
2024-03-06T11:39:08.524Z,101091.95
2024-03-06T11:41:45.298Z,101087.33
2024-03-06T11:44:24.581Z,101083.55
2024-03-06T11:47:06.859Z,101084.54
2024-03-06T11:49:41.765Z,101080.70
2024-03-06T11:52:09.889Z,101081.17
2024-03-06T11:54:37.279Z,101074.93
2024-03-06T11:57:05.757Z,101081.65
2024-03-06T11:59:37.372Z,101077.42
2024-03-06T12:02:07.407Z,101074.39
2024-03-06T12:04:40.046Z,101076.41
2024-03-06T12:07:08.277Z,101078.02
2024-03-06T12:09:42.238Z,101072.83
2024-03-06T12:12:12.144Z,101070.64
2024-03-06T12:14:43.089Z,101072.13
2024-03-06T12:17:18.102Z,101072.83
2024-03-06T12:19:46.663Z,101069.90
2024-03-06T12:22:15.918Z,101071.84
2024-03-06T12:24:43.317Z,101066.51
2024-03-06T12:27:10.406Z,101065.52
2024-03-06T12:29:39.303Z,101064.54
2024-03-06T12:32:18.692Z,101065.01
2024-03-06T12:34:46.067Z,101066.06
2024-03-06T12:37:13.256Z,101068.81
2024-03-06T12:39:43.408Z,101066.27
2024-03-06T12:42:13.282Z,101062.67
2024-03-06T12:44:42.279Z,101065.02
2024-03-06T12:47:09.403Z,101064.23
2024-03-06T12:49:36.383Z,101065.54
2024-03-06T12:52:06.239Z,101064.17
2024-03-06T12:54:33.510Z,101066.45
2024-03-06T12:57:00.773Z,101067.50
2024-03-06T12:59:28.084Z,101068.58
2024-03-06T13:01:55.708Z,101074.12
2024-03-06T13:04:22.938Z,101073.50
2024-03-06T13:06:50.113Z,101068.04
2024-03-06T13:09:17.342Z,101074.55
2024-03-06T13:11:44.574Z,101072.14
2024-03-06T13:14:13.749Z,101071.84
2024-03-06T13:16:41.357Z,101077.26
2024-03-06T13:19:09.530Z,101076.64
2024-03-06T13:21:37.229Z,101073.92
2024-03-06T13:24:04.668Z,101069.24
2024-03-06T13:26:32.008Z,101076.65
2024-03-06T13:29:01.120Z,101076.20
2024-03-06T13:31:28.523Z,101079.02
2024-03-06T13:33:55.513Z,101074.94
2024-03-06T13:36:23.726Z,101075.25
2024-03-06T13:38:51.171Z,101078.39
2024-03-06T13:41:18.641Z,101077.80
2024-03-06T13:43:45.752Z,101072.15
2024-03-06T13:46:12.970Z,101073.70
2024-03-06T13:48:40.040Z,101072.38
2024-03-06T13:51:07.627Z,101070.29
2024-03-06T13:53:35.252Z,101068.39
2024-03-06T13:56:02.509Z,101068.83
2024-03-06T13:58:29.561Z,101071.47
2024-03-06T14:00:59.122Z,101069.89
2024-03-06T14:03:27.620Z,101070.67
2024-03-06T14:05:55.784Z,101070.58
2024-03-06T14:08:27.372Z,101070.61
2024-03-06T14:11:02.596Z,101070.27
2024-03-06T14:13:36.133Z,101073.27
2024-03-06T14:18:47.220Z,101075.91
2024-03-06T14:21:20.973Z,101077.02
2024-03-06T14:23:59.527Z,101076.64
2024-03-06T14:44:52.681Z,101084.55
2024-03-06T14:47:20.537Z,101087.64
2024-03-06T14:49:47.503Z,101088.91
2024-03-06T14:52:14.544Z,101087.41
2024-03-06T14:54:45.591Z,101089.74
2024-03-06T14:57:13.544Z,101091.23
2024-03-06T14:59:41.092Z,101095.24
2024-03-06T15:02:08.137Z,101095.98
2024-03-06T15:04:35.031Z,101102.06
2024-03-06T15:07:02.213Z,101106.61
2024-03-06T15:09:29.835Z,101106.46
2024-03-06T15:11:58.308Z,101106.22
2024-03-06T15:14:26.263Z,101109.39
2024-03-06T15:16:54.617Z,101109.02
2024-03-06T15:19:22.408Z,101109.54
2024-03-06T15:21:49.313Z,101112.16
2024-03-06T15:24:16.327Z,101112.89
2024-03-06T15:26:44.157Z,101117.01
2024-03-06T15:29:13.161Z,101115.48
2024-03-06T15:31:40.156Z,101116.50
2024-03-06T15:34:07.951Z,101116.04
2024-03-06T15:36:34.961Z,101115.52
2024-03-06T15:39:02.074Z,101116.41
2024-03-06T15:41:29.204Z,101116.02
2024-03-06T15:43:56.085Z,101119.45
2024-03-06T15:46:23.542Z,101113.16
2024-03-06T15:48:50.665Z,101116.73
2024-03-06T15:51:17.840Z,101117.77
2024-03-06T15:53:47.314Z,101115.77
2024-03-06T15:56:15.532Z,101116.44
2024-03-06T15:58:43.508Z,101116.09
2024-03-06T16:01:10.692Z,101113.67
2024-03-06T16:03:38.969Z,101113.58
2024-03-06T16:06:14.462Z,101113.39
2024-03-06T16:08:45.558Z,101112.80
2024-03-06T16:11:12.656Z,101112.05
2024-03-06T16:13:39.874Z,101117.05
2024-03-06T16:16:07.623Z,101115.95
2024-03-06T16:18:34.798Z,101118.05
2024-03-06T16:21:03.564Z,101119.74
2024-03-06T16:23:30.792Z,101119.60
2024-03-06T16:25:57.679Z,101118.98
2024-03-06T16:28:24.786Z,101113.43
2024-03-06T16:30:52.492Z,101118.70
2024-03-06T16:33:19.872Z,101122.93
2024-03-06T16:35:46.906Z,101122.31
2024-03-06T16:38:15.278Z,101125.35
2024-03-06T16:40:42.474Z,101127.57
2024-03-06T16:43:09.467Z,101127.25
2024-03-06T16:45:36.471Z,101125.39
2024-03-06T16:48:05.623Z,101126.35
2024-03-06T16:50:33.934Z,101127.20
2024-03-06T16:53:01.084Z,101127.16
2024-03-06T16:55:28.060Z,101128.33
2024-03-06T16:57:54.948Z,101132.94
2024-03-06T17:00:23.619Z,101130.61
2024-03-06T17:02:51.011Z,101139.02
2024-03-06T17:05:19.322Z,101137.92
2024-03-06T17:07:49.251Z,101143.06
2024-03-06T17:10:17.306Z,101141.37
2024-03-06T17:12:45.127Z,101147.46
2024-03-06T17:15:14.000Z,101148.48
2024-03-06T17:17:42.262Z,101148.52
2024-03-06T17:20:10.527Z,101150.70
2024-03-06T17:22:38.607Z,101150.60
2024-03-06T17:25:09.053Z,101151.58
2024-03-06T17:27:37.394Z,101149.59
2024-03-06T17:30:06.533Z,101148.23
2024-03-06T17:32:34.571Z,101148.90
2024-03-06T17:35:04.975Z,101149.48
2024-03-06T17:37:33.037Z,101146.15
2024-03-06T17:40:01.229Z,101152.50
2024-03-06T17:42:29.360Z,101147.80
2024-03-06T17:44:57.324Z,101146.89
2024-03-06T17:47:25.404Z,101148.25
2024-03-06T17:49:53.370Z,101146.81
2024-03-06T17:52:21.246Z,101146.77
2024-03-06T17:54:49.043Z,101142.55
2024-03-06T17:57:16.927Z,101142.30
2024-03-06T17:59:45.387Z,101145.92
2024-03-06T18:02:13.339Z,101147.98
2024-03-06T18:04:41.227Z,101147.12
2024-03-06T18:07:09.204Z,101149.70
2024-03-06T18:09:37.789Z,101151.08
2024-03-06T18:12:05.917Z,101151.88
2024-03-06T18:14:34.384Z,101153.45
2024-03-06T18:17:02.226Z,101156.17
2024-03-06T18:19:30.153Z,101157.45
2024-03-06T18:21:58.213Z,101158.43
2024-03-06T18:24:27.030Z,101155.99
2024-03-06T18:26:55.052Z,101154.98
2024-03-06T18:29:24.388Z,101156.95
2024-03-06T18:31:52.245Z,101158.11
2024-03-06T18:34:20.295Z,101152.75
2024-03-06T18:36:48.581Z,101152.10
2024-03-06T18:39:16.759Z,101154.06
2024-03-06T18:41:45.985Z,101154.44
2024-03-06T18:44:14.638Z,101155.92
2024-03-06T18:46:42.890Z,101155.58
2024-03-06T18:49:12.650Z,101157.34
2024-03-06T18:51:40.594Z,101161.59
2024-03-06T18:54:08.625Z,101162.05
2024-03-06T18:56:36.983Z,101162.59
2024-03-06T18:59:05.288Z,101165.86
2024-03-06T19:01:33.158Z,101165.64
2024-03-06T19:04:01.672Z,101170.66
2024-03-06T19:06:29.559Z,101167.36
2024-03-06T19:08:57.744Z,101168.41
2024-03-06T19:11:25.641Z,101167.46
2024-03-06T19:13:53.617Z,101162.80
2024-03-06T19:16:22.006Z,101166.62
2024-03-06T19:18:49.962Z,101170.23
2024-03-06T19:21:18.545Z,101169.32
2024-03-06T19:23:46.412Z,101171.76
2024-03-06T19:26:14.298Z,101172.39
2024-03-06T19:28:45.473Z,101176.08
2024-03-06T19:31:13.940Z,101174.38
2024-03-06T19:33:41.928Z,101177.52
2024-03-06T19:36:10.215Z,101178.83
2024-03-06T19:38:38.247Z,101179.55
2024-03-06T19:41:06.214Z,101181.04
2024-03-06T19:43:39.858Z,101181.59
2024-03-06T19:46:08.603Z,101179.29
2024-03-06T19:48:36.962Z,101183.01
2024-03-06T19:51:06.125Z,101180.65
2024-03-06T19:53:34.840Z,101183.83
2024-03-06T19:56:03.825Z,101183.06
2024-03-06T19:58:32.768Z,101182.23
2024-03-06T20:01:00.737Z,101183.72
2024-03-06T20:03:28.663Z,101188.75
2024-03-06T20:05:56.724Z,101188.83
2024-03-06T20:08:28.962Z,101188.85
2024-03-06T20:10:57.068Z,101191.86
2024-03-06T20:13:25.068Z,101186.43
2024-03-06T20:15:52.983Z,101186.06
2024-03-06T20:18:20.967Z,101191.23
2024-03-06T20:20:49.438Z,101191.90
2024-03-06T20:23:17.464Z,101190.43
2024-03-06T20:25:45.349Z,101190.53
2024-03-06T20:28:13.247Z,101191.33
2024-03-06T20:30:46.530Z,101192.58
2024-03-06T20:33:14.965Z,101192.38
2024-03-06T20:35:43.654Z,101192.28
2024-03-06T20:38:16.693Z,101191.73
2024-03-06T20:40:48.034Z,101195.24
2024-03-06T20:43:16.388Z,101190.73
2024-03-06T20:45:45.495Z,101191.16
2024-03-06T20:48:14.160Z,101194.26
2024-03-06T20:50:42.339Z,101192.66
2024-03-06T20:53:10.479Z,101195.79
2024-03-06T20:55:38.623Z,101194.08
2024-03-06T20:58:10.113Z,101193.98
2024-03-06T21:00:37.994Z,101195.09
2024-03-06T21:03:06.003Z,101202.05
2024-03-06T21:05:34.500Z,101200.27
2024-03-06T21:08:02.449Z,101203.86
2024-03-06T21:10:30.961Z,101212.90
2024-03-06T21:12:58.938Z,101210.31
2024-03-06T21:15:27.968Z,101209.00
2024-03-06T21:17:57.233Z,101211.00
2024-03-06T21:20:25.278Z,101217.36
2024-03-06T21:22:53.224Z,101215.88
2024-03-06T21:25:21.599Z,101218.89
2024-03-06T21:27:49.503Z,101219.29
2024-03-06T21:30:17.530Z,101221.57
2024-03-06T21:32:46.095Z,101220.02
2024-03-06T21:35:14.384Z,101223.15
2024-03-06T21:37:42.340Z,101220.64
2024-03-06T21:40:10.718Z,101221.52
2024-03-06T21:42:38.786Z,101221.73
2024-03-06T21:45:07.253Z,101226.58
2024-03-06T21:47:35.837Z,101225.67
2024-03-06T21:50:07.217Z,101229.41
2024-03-06T21:52:35.378Z,101233.44
2024-03-06T21:55:04.288Z,101227.98
2024-03-06T21:57:32.347Z,101229.34
2024-03-06T22:00:00.305Z,101231.06
2024-03-06T22:02:28.459Z,101228.69
2024-03-06T22:04:56.309Z,101227.74
2024-03-06T22:07:24.209Z,101226.52
2024-03-06T22:09:52.087Z,101228.62
2024-03-06T22:12:20.117Z,101232.98
2024-03-06T22:14:48.349Z,101232.02
2024-03-06T22:17:16.412Z,101233.98
2024-03-06T22:19:44.363Z,101233.89
2024-03-06T22:22:13.374Z,101233.08
2024-03-06T22:24:41.406Z,101234.94
2024-03-06T22:27:09.489Z,101235.56
2024-03-06T22:29:39.147Z,101239.86
2024-03-06T22:32:07.411Z,101239.73
2024-03-06T22:34:37.596Z,101244.00
2024-03-06T22:37:05.767Z,101243.31
2024-03-06T22:39:34.943Z,101246.60
2024-03-06T22:42:02.866Z,101247.95
2024-03-06T22:44:30.819Z,101250.23
2024-03-06T22:46:58.770Z,101252.16
2024-03-06T22:49:26.730Z,101252.62
2024-03-06T22:51:55.016Z,101253.88
2024-03-06T22:54:22.910Z,101257.20
2024-03-06T22:56:50.894Z,101255.42
2024-03-06T22:59:18.753Z,101255.71
2024-03-06T23:01:49.400Z,101255.52
2024-03-06T23:04:19.037Z,101259.09
2024-03-06T23:06:47.198Z,101264.10
2024-03-06T23:09:15.125Z,101260.08
2024-03-06T23:11:43.174Z,101258.94
2024-03-06T23:14:11.121Z,101263.95
2024-03-06T23:16:38.989Z,101262.98
2024-03-06T23:19:06.963Z,101262.54
2024-03-06T23:21:36.652Z,101260.02
2024-03-06T23:24:07.502Z,101261.13
2024-03-06T23:26:35.573Z,101263.86
2024-03-06T23:29:05.016Z,101257.38
2024-03-06T23:31:32.995Z,101258.04
2024-03-06T23:34:01.285Z,101260.49
2024-03-06T23:36:31.900Z,101257.98
2024-03-06T23:38:59.810Z,101261.45
2024-03-06T23:41:30.272Z,101257.41
2024-03-06T23:43:58.598Z,101262.13
2024-03-06T23:46:26.478Z,101263.89
2024-03-06T23:48:54.361Z,101263.52
2024-03-06T23:51:22.376Z,101265.71
2024-03-06T23:53:50.519Z,101262.10
2024-03-06T23:56:18.684Z,101260.36
2024-03-06T23:58:47.982Z,101263.54
